Main page
METAR-TAF:

METAR-TAF

Airports :

Mitiga International Airport

Tripoli, Libya

latitude: 32-54N, longitude: 13-17E, elevation: 11 m

Current weather observation

The report was made 42 minutes ago, at 10:50 UTC
Wind 9 kt from the North/Northeast
Temperature 31°C
Humidity 59%
Pressure 1015 hPa
Visibility: 8000 m
Few clouds at a height of 2500 ft

METAR: HLLM 151050Z 02009KT 8000 FEW025 31/22 Q1015

Time: 13:32 (11:32 UTC)

Forecast

The report was made 32 minutes ago, at 11:00 UTC
Forecast valid from 14 at 12 UTC to 15 at 12 UTC
Wind 12 kt from the North/Northwest
Visibility 10 km or more
Scattered clouds at a height of 3000 ft
Scattered clouds at a height of 8000 ft
Becoming
from 14 at 20 UTC to 14 at 22 UTC
Wind 2 kt from variable directions

TAF: HLLM 141100Z 1412/1512 34012KT 9999 SCT030 SCT080 BECMG 1420/1422 VRB02KT

Weather observations and forecasts of more than 4000 airports (METAR and TAF reports).

The available stations are represented by yellow and red dots on the map.

Hover mouse over dot to see the name of the station.

Then click to see weather observations and forecasts.

To change the map : click on the green buttons with a black cross to zoom in, on the green button with a dash to zoom out, or on the green arrows for adjacent maps.


METAR-TAF: